Terminal Aerodrome Forecast
Issued by NWS

Home | Current Version | Previous Version | Text Only | Print | Product List | Glossary On
Versions: 1 2 3 4 5 6 7 8 9 10 11 12 13 14 15 16 17 18
000
FTUS41 KBTV 230534
TAFMSS
TAF
KMSS 230534Z 2306/2406 03012KT P6SM BKN050
     FM231400 03012KT P6SM OVC030
     FM240200 02006KT P6SM OVC035=

USA.gov is the U.S. government's official web portal to all federal, state and local government web resources and services.